createdAt,value
2019-02-11T00:02:00.528Z,1.98
2019-02-11T00:04:33.230Z,1.98
2019-02-11T00:07:05.909Z,2.09
2019-02-11T00:09:38.913Z,2.12
2019-02-11T00:12:11.557Z,2.12
2019-02-11T00:14:44.999Z,2.13
2019-02-11T00:17:17.559Z,2.12
2019-02-11T00:19:50.209Z,2.16
2019-02-11T00:22:22.840Z,2.10
2019-02-11T00:24:55.568Z,2.14
2019-02-11T00:27:28.129Z,2.10
2019-02-11T00:30:00.942Z,2.03
2019-02-11T00:32:33.633Z,1.99
2019-02-11T00:35:06.262Z,1.91
2019-02-11T00:37:38.948Z,1.93
2019-02-11T00:40:11.774Z,1.94
2019-02-11T00:42:44.730Z,1.97
2019-02-11T00:45:20.391Z,2.05
2019-02-11T00:47:52.971Z,2.02
2019-02-11T00:50:25.572Z,1.99
2019-02-11T00:52:58.161Z,1.96
2019-02-11T00:55:30.869Z,1.98
2019-02-11T00:58:03.474Z,1.99
2019-02-11T01:00:36.049Z,2.00
2019-02-11T01:03:08.725Z,2.08
2019-02-11T01:05:41.382Z,2.08
2019-02-11T01:08:14.009Z,2.11
2019-02-11T01:10:46.788Z,2.13
2019-02-11T01:13:27.198Z,2.17
2019-02-11T01:15:53.968Z,2.20
2019-02-11T01:18:26.658Z,2.18
2019-02-11T01:20:59.211Z,2.20
2019-02-11T01:23:31.998Z,2.11
2019-02-11T01:26:04.516Z,2.06
2019-02-11T01:28:37.250Z,2.05
2019-02-11T01:31:09.853Z,1.98
2019-02-11T01:33:47.590Z,2.08
2019-02-11T01:36:20.144Z,2.06
2019-02-11T01:38:52.766Z,2.11
2019-02-11T01:41:25.378Z,2.13
2019-02-11T01:43:58.038Z,2.12
2019-02-11T01:46:30.669Z,2.21
2019-02-11T01:49:03.341Z,2.21
2019-02-11T01:51:35.991Z,2.19
2019-02-11T01:54:08.516Z,2.11
2019-02-11T01:56:41.375Z,2.09
2019-02-11T01:59:14.127Z,2.14
2019-02-11T02:01:46.732Z,2.11
2019-02-11T02:04:19.315Z,2.09
2019-02-11T02:06:52.022Z,2.08
2019-02-11T02:09:24.611Z,2.04
2019-02-11T02:11:57.192Z,2.00
2019-02-11T02:14:29.797Z,1.98
2019-02-11T02:17:02.499Z,1.98
2019-02-11T02:19:35.229Z,1.91
2019-02-11T02:22:07.907Z,1.64
2019-02-11T02:24:40.494Z,1.43
2019-02-11T02:27:13.188Z,1.29
2019-02-11T02:29:45.841Z,1.18
2019-02-11T02:32:18.692Z,1.15
2019-02-11T02:34:51.451Z,1.16
2019-02-11T02:37:24.085Z,1.17
2019-02-11T02:39:57.002Z,1.21
2019-02-11T02:42:29.710Z,1.25
2019-02-11T02:45:02.555Z,1.25
2019-02-11T02:47:35.179Z,1.21
2019-02-11T02:50:08.682Z,1.31
2019-02-11T02:52:41.286Z,1.29
2019-02-11T02:55:13.975Z,1.19
2019-02-11T02:57:46.743Z,1.10
2019-02-11T03:00:19.248Z,1.14
2019-02-11T03:02:51.971Z,1.16
2019-02-11T03:05:25.709Z,1.13
2019-02-11T03:07:59.686Z,1.16
2019-02-11T03:10:32.381Z,1.19
2019-02-11T03:13:05.074Z,1.21
2019-02-11T03:15:37.664Z,1.30
2019-02-11T03:18:10.350Z,1.48
2019-02-11T03:20:42.913Z,1.60
2019-02-11T03:23:15.633Z,1.58
2019-02-11T03:25:48.266Z,1.70
2019-02-11T03:28:20.872Z,1.74
2019-02-11T03:30:52.686Z,1.72
2019-02-11T03:33:25.381Z,1.70
2019-02-11T03:35:58.532Z,1.73
2019-02-11T03:38:31.089Z,1.75
2019-02-11T03:41:03.784Z,1.70
2019-02-11T03:43:36.352Z,1.75
2019-02-11T03:46:09.199Z,1.68
2019-02-11T03:48:41.747Z,1.69
2019-02-11T03:51:14.519Z,1.69
2019-02-11T03:53:47.142Z,1.72
2019-02-11T03:56:20.036Z,1.65
2019-02-11T03:58:52.797Z,1.69
2019-02-11T04:01:25.475Z,1.67
2019-02-11T04:03:59.115Z,1.61
2019-02-11T04:06:31.780Z,1.39
2019-02-11T04:09:06.082Z,1.11
2019-02-11T04:11:38.734Z,1.01
2019-02-11T04:14:11.504Z,0.94
2019-02-11T04:16:44.150Z,0.87
2019-02-11T04:19:17.101Z,0.94
2019-02-11T04:22:10.356Z,0.93
2019-02-11T04:24:47.523Z,0.90
2019-02-11T04:27:19.328Z,0.81
2019-02-11T04:29:51.927Z,0.81
2019-02-11T04:32:24.765Z,0.80
2019-02-11T04:34:57.345Z,0.78
2019-02-11T04:37:29.914Z,0.71
2019-02-11T04:40:02.499Z,0.68
2019-02-11T04:42:35.120Z,0.62
2019-02-11T04:45:08.902Z,0.59
2019-02-11T04:47:41.495Z,0.56
2019-02-11T04:50:14.152Z,0.48
2019-02-11T04:52:46.708Z,0.43
2019-02-11T04:55:19.514Z,0.40
2019-02-11T04:57:52.114Z,0.44
2019-02-11T05:00:24.805Z,0.39
2019-02-11T05:03:00.527Z,0.45
2019-02-11T05:05:33.118Z,0.52
2019-02-11T05:08:05.811Z,0.54
2019-02-11T05:10:38.536Z,0.57
2019-02-11T05:13:11.100Z,0.62
2019-02-11T05:15:43.748Z,0.63
2019-02-11T05:18:16.945Z,0.63
2019-02-11T05:20:49.751Z,0.67
2019-02-11T05:23:22.297Z,0.61
2019-02-11T05:25:54.914Z,0.67
2019-02-11T05:28:27.450Z,0.69
2019-02-11T05:31:00.177Z,0.65
2019-02-11T05:33:32.739Z,0.61
2019-02-11T05:36:05.403Z,0.65
2019-02-11T05:38:38.005Z,0.69
2019-02-11T05:41:15.447Z,0.68
2019-02-11T05:43:49.108Z,0.72
2019-02-11T05:46:24.723Z,0.73
2019-02-11T05:48:57.313Z,0.73
2019-02-11T05:51:29.904Z,0.66
2019-02-11T05:54:02.537Z,0.75
2019-02-11T05:56:35.163Z,0.81
2019-02-11T05:59:07.852Z,0.79
2019-02-11T06:01:40.436Z,0.79
2019-02-11T06:04:13.075Z,0.77
2019-02-11T06:06:45.635Z,0.80
2019-02-11T06:09:18.519Z,0.82
2019-02-11T06:11:51.180Z,0.89
2019-02-11T06:14:23.877Z,0.91
2019-02-11T06:16:56.521Z,0.88
2019-02-11T06:19:30.156Z,0.89
2019-02-11T06:22:03.660Z,0.93
2019-02-11T06:24:39.086Z,0.96
2019-02-11T06:27:11.676Z,0.94
2019-02-11T06:29:44.474Z,0.90
2019-02-11T06:32:17.068Z,1.02
2019-02-11T06:34:49.814Z,1.05
2019-02-11T06:37:22.521Z,1.02
2019-02-11T06:39:55.136Z,1.10
2019-02-11T06:42:27.772Z,1.09
2019-02-11T06:45:00.394Z,1.15
2019-02-11T06:47:32.976Z,1.14
2019-02-11T06:50:06.472Z,1.18
2019-02-11T06:52:39.196Z,1.18
2019-02-11T06:55:12.310Z,1.16
2019-02-11T06:57:44.864Z,1.15
2019-02-11T07:00:17.506Z,1.22
2019-02-11T07:02:50.131Z,1.22
2019-02-11T07:05:22.807Z,1.26
2019-02-11T07:07:55.476Z,1.28
2019-02-11T07:10:28.033Z,1.24
2019-02-11T07:13:00.734Z,1.25
2019-02-11T07:15:33.396Z,1.25
2019-02-11T07:18:06.031Z,1.29
2019-02-11T07:20:38.737Z,1.31
2019-02-11T07:23:11.352Z,1.36
2019-02-11T07:25:44.028Z,1.34
2019-02-11T07:28:16.651Z,1.38
2019-02-11T07:30:49.232Z,1.38
2019-02-11T07:33:21.911Z,1.40
2019-02-11T07:35:54.586Z,1.43
2019-02-11T07:38:27.194Z,1.41
2019-02-11T07:41:00.214Z,1.43
2019-02-11T07:43:41.479Z,1.45
2019-02-11T07:46:33.819Z,1.47
2019-02-11T07:49:06.512Z,1.50
2019-02-11T07:51:42.234Z,1.48
2019-02-11T07:54:13.405Z,1.53
2019-02-11T07:56:46.010Z,1.58
2019-02-11T07:59:23.387Z,1.55
2019-02-11T08:01:53.422Z,1.54
2019-02-11T08:04:26.055Z,1.59
2019-02-11T08:06:58.746Z,1.64
2019-02-11T08:09:31.606Z,1.60
2019-02-11T08:12:04.359Z,1.52
2019-02-11T08:14:37.012Z,1.66
2019-02-11T08:17:09.735Z,1.73
2019-02-11T08:19:42.896Z,1.84
2019-02-11T08:22:15.819Z,1.86
2019-02-11T08:24:48.857Z,1.90
2019-02-11T08:27:21.562Z,1.86
2019-02-11T08:29:54.302Z,1.85
2019-02-11T08:32:26.975Z,1.88
2019-02-11T08:34:59.870Z,1.88
2019-02-11T08:37:32.447Z,1.97
2019-02-11T08:40:07.239Z,2.11
2019-02-11T08:42:43.077Z,2.13
2019-02-11T08:45:15.912Z,2.14
2019-02-11T08:47:48.821Z,2.23
2019-02-11T08:50:21.645Z,2.28
2019-02-11T08:52:54.278Z,2.28
2019-02-11T08:55:26.976Z,2.31
2019-02-11T08:57:59.597Z,2.24
2019-02-11T09:00:32.395Z,2.23
2019-02-11T09:03:05.208Z,2.25
2019-02-11T09:05:37.877Z,2.28
2019-02-11T09:08:10.993Z,2.44
2019-02-11T09:10:43.741Z,2.62
2019-02-11T09:13:16.297Z,2.64
2019-02-11T09:15:55.273Z,2.67
2019-02-11T09:18:23.397Z,2.85
2019-02-11T09:20:56.083Z,3.12
2019-02-11T09:23:32.802Z,3.06
2019-02-11T09:26:05.903Z,3.33
2019-02-11T09:28:38.689Z,3.73
2019-02-11T09:31:11.683Z,3.86
2019-02-11T09:33:44.426Z,3.91
2019-02-11T09:36:17.084Z,3.60
2019-02-11T09:38:49.618Z,3.87
2019-02-11T09:41:22.270Z,4.11
2019-02-11T09:43:54.866Z,4.18
2019-02-11T09:46:27.509Z,3.98
2019-02-11T09:49:00.057Z,3.86
2019-02-11T09:51:34.317Z,3.62
2019-02-11T09:54:07.228Z,3.48
2019-02-11T09:56:40.785Z,3.48
2019-02-11T09:59:14.788Z,3.16
2019-02-11T10:01:47.499Z,3.15
2019-02-11T10:04:20.188Z,3.05
2019-02-11T10:06:52.775Z,2.97
2019-02-11T10:09:25.347Z,2.99
2019-02-11T10:11:58.008Z,3.21
2019-02-11T10:14:30.712Z,3.27
2019-02-11T10:17:03.462Z,3.28
2019-02-11T10:19:36.292Z,3.25
2019-02-11T10:22:08.994Z,3.12
2019-02-11T10:24:41.702Z,3.06
2019-02-11T10:27:15.917Z,3.12
2019-02-11T10:29:48.746Z,3.21
2019-02-11T10:32:21.435Z,3.36
2019-02-11T10:34:54.047Z,3.45
2019-02-11T10:37:27.231Z,3.37
2019-02-11T10:39:59.930Z,3.46
2019-02-11T10:42:32.484Z,3.78
2019-02-11T10:45:05.613Z,4.12
2019-02-11T10:47:38.655Z,4.32
2019-02-11T10:50:12.870Z,4.66
2019-02-11T10:52:45.842Z,4.40
2019-02-11T10:55:19.358Z,4.34
2019-02-11T10:57:52.333Z,4.12
2019-02-11T11:00:25.709Z,3.83
2019-02-11T11:02:59.280Z,3.89
2019-02-11T11:05:31.837Z,4.03
2019-02-11T11:08:04.759Z,4.10
2019-02-11T11:10:37.895Z,3.59
2019-02-11T11:13:10.515Z,3.59
2019-02-11T11:15:43.104Z,3.93
2019-02-11T11:18:15.699Z,4.13
2019-02-11T11:20:48.243Z,4.17
2019-02-11T11:23:21.137Z,4.17
2019-02-11T11:25:53.928Z,4.04
2019-02-11T11:28:26.678Z,4.03
2019-02-11T11:30:59.369Z,4.01
2019-02-11T11:33:32.051Z,4.02
2019-02-11T11:36:04.612Z,4.20
2019-02-11T11:38:37.276Z,4.13
2019-02-11T11:41:10.391Z,4.05
2019-02-11T11:43:43.062Z,3.71
2019-02-11T11:46:15.742Z,3.49
2019-02-11T11:48:48.365Z,3.22
2019-02-11T11:51:21.097Z,3.02
2019-02-11T11:53:53.703Z,2.97
2019-02-11T11:56:26.385Z,2.91
2019-02-11T11:58:59.062Z,2.93
2019-02-11T12:01:31.662Z,3.04
2019-02-11T12:04:06.414Z,3.30
2019-02-11T12:06:38.281Z,3.76
2019-02-11T12:09:11.350Z,4.23
2019-02-11T12:11:44.055Z,4.53
2019-02-11T12:14:17.909Z,4.68
2019-02-11T12:16:56.810Z,4.17
2019-02-11T12:19:24.726Z,3.86
2019-02-11T12:21:57.542Z,3.57
2019-02-11T12:24:30.759Z,3.28
2019-02-11T12:27:03.692Z,3.21
2019-02-11T12:29:36.373Z,3.11
2019-02-11T12:32:09.030Z,3.10
2019-02-11T12:34:41.688Z,3.01
2019-02-11T12:37:14.427Z,2.81
2019-02-11T12:39:47.150Z,2.71
2019-02-11T12:42:19.741Z,2.89
2019-02-11T12:44:52.461Z,3.30
2019-02-11T12:47:25.098Z,4.11
2019-02-11T12:49:57.919Z,4.99
2019-02-11T12:52:30.604Z,5.51
2019-02-11T12:55:07.579Z,5.81
2019-02-11T12:57:37.631Z,5.69
2019-02-11T13:00:19.100Z,7.33
2019-02-11T13:02:51.982Z,7.36
2019-02-11T13:05:43.488Z,8.82
2019-02-11T13:07:59.425Z,8.23
2019-02-11T13:10:32.089Z,8.91
2019-02-11T13:13:06.723Z,8.36
2019-02-11T13:15:59.266Z,7.60
2019-02-11T13:18:14.064Z,6.61
2019-02-11T13:20:47.110Z,6.10
2019-02-11T13:23:19.289Z,4.81
2019-02-11T13:25:55.853Z,3.90
2019-02-11T13:28:28.141Z,3.16
2019-02-11T13:31:00.752Z,2.83
2019-02-11T13:33:33.378Z,2.37
2019-02-11T13:36:06.157Z,2.08
2019-02-11T13:38:45.858Z,1.92
2019-02-11T13:41:21.671Z,1.69
2019-02-11T13:43:56.915Z,1.58
2019-02-11T13:46:30.218Z,1.66
2019-02-11T13:49:03.042Z,1.75
2019-02-11T13:51:36.114Z,1.95
2019-02-11T13:54:09.337Z,2.15
2019-02-11T13:56:44.186Z,2.40
2019-02-11T13:59:17.833Z,3.14
2019-02-11T14:01:50.848Z,4.49
2019-02-11T14:04:27.681Z,4.64
2019-02-11T14:06:58.431Z,4.06
2019-02-11T14:09:31.073Z,3.91
2019-02-11T14:12:03.758Z,4.10
2019-02-11T14:14:36.330Z,3.83
2019-02-11T14:17:08.930Z,3.34
2019-02-11T14:19:41.654Z,2.98
2019-02-11T14:22:14.578Z,2.77
2019-02-11T14:24:55.062Z,2.46
2019-02-11T14:27:29.452Z,2.37
2019-02-11T14:30:04.410Z,2.31
2019-02-11T14:32:37.062Z,2.35
2019-02-11T14:35:09.892Z,2.49
2019-02-11T14:37:42.530Z,2.39
2019-02-11T14:40:15.678Z,2.35
2019-02-11T14:42:48.321Z,2.23
2019-02-11T14:45:21.046Z,1.88
2019-02-11T14:47:53.724Z,1.87
2019-02-11T14:50:26.387Z,1.98
2019-02-11T14:52:59.129Z,1.97
2019-02-11T14:55:31.815Z,1.97
2019-02-11T14:58:04.460Z,1.84
2019-02-11T15:00:37.031Z,1.62
2019-02-11T15:03:09.704Z,1.52
2019-02-11T15:05:42.277Z,1.39
2019-02-11T15:08:15.096Z,1.23
2019-02-11T15:10:47.845Z,1.13
2019-02-11T15:13:20.501Z,1.12
2019-02-11T15:15:53.140Z,1.15
2019-02-11T15:18:33.932Z,1.12
2019-02-11T15:21:00.136Z,1.14
2019-02-11T15:23:32.823Z,1.07
2019-02-11T15:26:05.362Z,1.02
2019-02-11T15:28:38.140Z,1.00
2019-02-11T15:31:10.681Z,1.12
2019-02-11T15:33:44.107Z,1.22
2019-02-11T15:36:16.748Z,1.26
2019-02-11T15:38:49.393Z,1.35
2019-02-11T15:41:22.051Z,1.51
2019-02-11T15:43:54.611Z,1.49
2019-02-11T15:46:27.386Z,1.33
2019-02-11T15:48:59.968Z,1.16
2019-02-11T15:51:32.767Z,1.09
2019-02-11T15:54:05.323Z,1.05
2019-02-11T15:56:37.915Z,1.09
2019-02-11T15:59:10.546Z,1.14
2019-02-11T16:01:43.131Z,1.32
2019-02-11T16:04:15.797Z,1.39
2019-02-11T16:06:48.407Z,1.52
2019-02-11T16:09:23.132Z,1.52
2019-02-11T16:11:56.052Z,1.42
2019-02-11T16:14:28.693Z,1.36
2019-02-11T16:17:01.352Z,1.38
2019-02-11T16:19:34.091Z,1.45
2019-02-11T16:22:06.887Z,1.41
2019-02-11T16:24:39.558Z,1.44
2019-02-11T16:27:12.229Z,1.43
2019-02-11T16:29:44.933Z,1.45
2019-02-11T16:32:17.614Z,1.45
2019-02-11T16:34:50.258Z,1.44
2019-02-11T16:37:22.909Z,1.51
2019-02-11T16:39:55.452Z,1.51
2019-02-11T16:42:28.136Z,1.52
2019-02-11T16:45:00.787Z,1.47
2019-02-11T16:47:33.401Z,1.40
2019-02-11T16:50:07.220Z,1.28
2019-02-11T16:52:39.943Z,1.31
2019-02-11T16:55:13.013Z,1.33
2019-02-11T16:57:45.684Z,1.31
2019-02-11T17:00:19.118Z,1.31
2019-02-11T17:02:51.763Z,1.25
2019-02-11T17:05:24.392Z,1.29
2019-02-11T17:07:57.108Z,1.20
2019-02-11T17:10:29.705Z,1.21
2019-02-11T17:13:02.353Z,1.28
2019-02-11T17:15:35.060Z,1.27
2019-02-11T17:18:07.736Z,1.24
2019-02-11T17:20:40.374Z,1.28
2019-02-11T17:23:14.599Z,1.23
2019-02-11T17:25:47.292Z,1.28
2019-02-11T17:28:20.060Z,1.38
2019-02-11T17:30:53.381Z,1.43
2019-02-11T17:33:25.992Z,1.44
2019-02-11T17:35:58.640Z,1.46
2019-02-11T17:38:32.223Z,1.43
2019-02-11T17:41:04.936Z,1.42
2019-02-11T17:43:37.526Z,1.45
2019-02-11T17:46:10.429Z,1.43
2019-02-11T17:48:43.197Z,1.48
2019-02-11T17:51:15.818Z,1.48
2019-02-11T17:53:48.471Z,1.53
2019-02-11T17:56:21.308Z,1.47
2019-02-11T17:58:53.885Z,1.48
2019-02-11T18:01:26.555Z,1.45
2019-02-11T18:03:59.207Z,1.43
2019-02-11T18:06:31.949Z,1.23
2019-02-11T18:09:05.751Z,1.14
2019-02-11T18:11:38.521Z,1.06
2019-02-11T18:14:13.543Z,1.13
2019-02-11T18:16:46.174Z,1.16
2019-02-11T18:19:25.918Z,1.11
2019-02-11T18:21:53.340Z,1.10
2019-02-11T18:24:26.297Z,1.00
2019-02-11T18:26:58.978Z,1.01
2019-02-11T18:29:31.617Z,0.92
2019-02-11T18:32:04.219Z,0.92
2019-02-11T18:34:36.857Z,0.97
2019-02-11T18:37:09.550Z,1.03
2019-02-11T18:39:42.175Z,1.02
2019-02-11T18:42:14.880Z,0.98
2019-02-11T18:44:47.542Z,0.87
2019-02-11T18:47:20.168Z,0.74
2019-02-11T18:49:52.801Z,0.69
2019-02-11T18:52:25.479Z,0.66
2019-02-11T18:54:58.123Z,0.62
2019-02-11T18:57:31.027Z,0.61
2019-02-11T19:00:04.071Z,0.53
2019-02-11T19:02:36.807Z,0.56
2019-02-11T19:05:09.410Z,0.55
2019-02-11T19:07:42.278Z,0.52
2019-02-11T19:10:15.104Z,0.53
2019-02-11T19:12:47.744Z,0.49
2019-02-11T19:15:20.449Z,0.44
2019-02-11T19:17:53.176Z,0.51
2019-02-11T19:20:25.914Z,0.60
2019-02-11T19:22:58.503Z,0.57
2019-02-11T19:25:31.284Z,0.47
2019-02-11T19:28:03.939Z,0.47
2019-02-11T19:30:36.550Z,0.42
2019-02-11T19:33:09.344Z,0.46
2019-02-11T19:35:41.986Z,0.55
2019-02-11T19:38:14.647Z,0.60
2019-02-11T19:40:47.260Z,0.62
2019-02-11T19:43:20.030Z,0.67
2019-02-11T19:45:52.738Z,0.73
2019-02-11T19:48:25.785Z,0.84
2019-02-11T19:50:58.438Z,0.80
2019-02-11T19:53:31.173Z,0.76
2019-02-11T19:56:03.739Z,0.75
2019-02-11T19:58:36.478Z,0.78
2019-02-11T20:01:09.294Z,0.82
2019-02-11T20:03:42.927Z,0.83
2019-02-11T20:06:16.302Z,0.85
2019-02-11T20:08:48.888Z,0.90
2019-02-11T20:11:21.508Z,0.99
2019-02-11T20:13:54.055Z,1.03
2019-02-11T20:16:26.731Z,1.01
2019-02-11T20:18:59.397Z,0.97
2019-02-11T20:21:32.059Z,0.94
2019-02-11T20:24:04.782Z,0.92
2019-02-11T20:26:37.441Z,0.94
2019-02-11T20:29:10.454Z,0.98
2019-02-11T20:31:43.082Z,1.02
2019-02-11T20:34:15.759Z,1.06
2019-02-11T20:36:48.463Z,1.06
2019-02-11T20:39:21.082Z,1.09
2019-02-11T20:41:53.728Z,1.13
2019-02-11T20:44:26.435Z,1.17
2019-02-11T20:47:02.096Z,1.24
2019-02-11T20:49:34.798Z,1.22
2019-02-11T20:52:07.437Z,1.14
2019-02-11T20:54:40.137Z,1.21
2019-02-11T20:57:12.708Z,1.19
2019-02-11T20:59:45.525Z,1.26
2019-02-11T21:02:18.257Z,1.32
2019-02-11T21:04:50.943Z,1.25
2019-02-11T21:07:23.583Z,1.38
2019-02-11T21:09:56.291Z,1.35
2019-02-11T21:12:29.229Z,1.28
2019-02-11T21:15:02.097Z,1.34
2019-02-11T21:17:34.793Z,1.38
2019-02-11T21:20:17.349Z,1.31
2019-02-11T21:22:44.952Z,1.30
2019-02-11T21:25:17.896Z,1.26
2019-02-11T21:27:50.783Z,1.33
2019-02-11T21:30:23.804Z,1.33
2019-02-11T21:32:57.598Z,1.34
2019-02-11T21:35:30.618Z,1.32
2019-02-11T21:38:03.644Z,1.23
2019-02-11T21:40:36.519Z,1.14
2019-02-11T21:43:09.506Z,1.10
2019-02-11T21:45:42.509Z,1.09
2019-02-11T21:48:16.924Z,1.07
2019-02-11T21:50:49.586Z,1.05
2019-02-11T21:53:22.220Z,1.04
2019-02-11T21:55:54.853Z,1.06
2019-02-11T21:58:27.379Z,1.06
2019-02-11T22:01:02.324Z,1.07
2019-02-11T22:03:34.339Z,1.04
2019-02-11T22:06:06.881Z,1.02
2019-02-11T22:08:39.553Z,1.03
2019-02-11T22:11:12.799Z,1.01
2019-02-11T22:13:45.421Z,1.05
2019-02-11T22:16:18.068Z,1.01
2019-02-11T22:18:50.600Z,0.96
2019-02-11T22:21:23.291Z,0.86
2019-02-11T22:23:56.094Z,0.76
2019-02-11T22:26:29.077Z,0.65
2019-02-11T22:29:01.703Z,0.57
2019-02-11T22:31:34.303Z,0.43
2019-02-11T22:34:06.960Z,0.30
2019-02-11T22:36:39.588Z,0.29
2019-02-11T22:39:12.689Z,0.10
2019-02-11T22:41:45.428Z,0.04
2019-02-11T22:44:18.030Z,0.03
2019-02-11T22:46:50.776Z,0.09
2019-02-11T22:49:23.447Z,0.06
2019-02-11T22:51:56.096Z,-0.01
2019-02-11T22:54:28.762Z,-0.02
2019-02-11T22:57:01.404Z,-0.10
2019-02-11T22:59:34.414Z,-0.12
2019-02-11T23:02:07.819Z,-0.18
2019-02-11T23:04:42.126Z,-0.36
2019-02-11T23:07:14.777Z,-0.49
2019-02-11T23:09:47.548Z,-0.52
2019-02-11T23:12:22.560Z,-0.44
2019-02-11T23:14:55.248Z,-0.36
2019-02-11T23:17:27.907Z,-0.31
2019-02-11T23:20:00.535Z,-0.27
2019-02-11T23:22:33.286Z,-0.20
2019-02-11T23:25:06.021Z,-0.18
2019-02-11T23:27:39.385Z,-0.04
2019-02-11T23:30:13.972Z,-0.01
2019-02-11T23:32:46.636Z,0.09
2019-02-11T23:35:18.462Z,0.28
2019-02-11T23:37:51.084Z,0.29
2019-02-11T23:40:23.733Z,0.33
2019-02-11T23:42:55.906Z,0.48
2019-02-11T23:45:28.547Z,0.44
2019-02-11T23:48:03.783Z,0.55
2019-02-11T23:50:36.515Z,0.57
2019-02-11T23:53:09.245Z,0.52
2019-02-11T23:55:41.873Z,0.59
2019-02-11T23:58:14.625Z,0.56
